createdAt,value
2022-09-25T00:02:39.014Z,12.156677
2022-09-25T00:06:04.408Z,12.096252
2022-09-25T00:09:29.870Z,12.06604
2022-09-25T00:12:55.408Z,12.116394
2022-09-25T00:16:20.842Z,12.136536
2022-09-25T00:19:46.309Z,12.156677
2022-09-25T00:23:11.795Z,12.166748
2022-09-25T00:26:37.326Z,12.156677
2022-09-25T00:30:02.786Z,12.136536
2022-09-25T00:33:28.211Z,12.156677
2022-09-25T00:36:53.644Z,12.096252
2022-09-25T00:40:19.193Z,12.086182
2022-09-25T00:43:44.610Z,12.015686
2022-09-25T00:47:10.016Z,11.955261
2022-09-25T00:50:35.445Z,11.834412
2022-09-25T00:54:00.933Z,11.753845
2022-09-25T00:57:26.348Z,11.653137
2022-09-25T01:00:51.819Z,11.522217
2022-09-25T01:04:17.376Z,11.44165
2022-09-25T01:07:42.748Z,11.371155
2022-09-25T01:11:08.159Z,11.270447
2022-09-25T01:14:33.610Z,11.220093
2022-09-25T01:17:59.133Z,11.169739
2022-09-25T01:21:24.672Z,11.089172
2022-09-25T01:24:54.533Z,11.069031
2022-09-25T01:28:20.623Z,11.05896
2022-09-25T01:31:46.110Z,11.018677
2022-09-25T01:35:11.571Z,10.988464
2022-09-25T01:38:37.108Z,10.93811
2022-09-25T01:42:02.546Z,10.968323
2022-09-25T01:45:27.964Z,11.038818
2022-09-25T01:48:53.459Z,11.05896
2022-09-25T01:52:18.967Z,11.099243
2022-09-25T01:55:44.381Z,11.099243
2022-09-25T01:59:09.837Z,11.089172
2022-09-25T02:02:35.412Z,11.038818
2022-09-25T02:06:00.798Z,10.998535
2022-09-25T02:09:26.242Z,11.018677
2022-09-25T02:12:51.746Z,11.018677
2022-09-25T02:16:17.255Z,11.018677
2022-09-25T02:19:43.207Z,11.028748
2022-09-25T02:23:08.633Z,10.998535
2022-09-25T02:26:34.061Z,10.998535
2022-09-25T02:29:59.634Z,11.028748
2022-09-25T02:33:24.948Z,11.028748
2022-09-25T02:36:50.411Z,11.038818
2022-09-25T02:40:15.876Z,11.05896
2022-09-25T02:43:41.293Z,11.038818
2022-09-25T02:47:06.843Z,11.089172
2022-09-25T02:50:32.222Z,11.099243
2022-09-25T02:53:57.686Z,11.05896
2022-09-25T02:57:23.180Z,10.998535
2022-09-25T03:00:48.704Z,10.917969
2022-09-25T03:04:14.092Z,10.917969
2022-09-25T03:07:39.551Z,10.887756
2022-09-25T03:11:04.965Z,10.958252
2022-09-25T03:14:30.411Z,11.028748
2022-09-25T03:17:55.872Z,11.089172
2022-09-25T03:21:21.385Z,11.069031
2022-09-25T03:24:46.773Z,11.05896
2022-09-25T03:28:12.242Z,11.05896
2022-09-25T03:31:37.675Z,11.05896
2022-09-25T03:35:03.135Z,10.968323
2022-09-25T03:38:28.590Z,10.917969
2022-09-25T03:41:54.018Z,10.877686
2022-09-25T03:45:17.891Z,10.857544
2022-09-25T03:48:43.380Z,10.787048
2022-09-25T03:52:08.769Z,10.787048
2022-09-25T03:55:34.229Z,10.80719
2022-09-25T03:58:59.644Z,10.847473
2022-09-25T04:02:25.169Z,10.907898
2022-09-25T04:05:50.511Z,10.907898
2022-09-25T04:09:15.921Z,10.917969
2022-09-25T04:12:41.435Z,10.968323
2022-09-25T04:16:06.902Z,10.998535
2022-09-25T04:19:32.349Z,10.988464
2022-09-25T04:22:57.759Z,10.988464
2022-09-25T04:26:23.307Z,11.028748
2022-09-25T04:29:48.880Z,11.038818
2022-09-25T04:33:14.182Z,11.109314
2022-09-25T04:36:39.719Z,11.109314
2022-09-25T04:40:05.159Z,11.109314
2022-09-25T04:43:30.636Z,11.038818
2022-09-25T04:46:56.123Z,11.069031
2022-09-25T04:50:21.528Z,11.109314
2022-09-25T04:53:47.043Z,11.18988
2022-09-25T04:57:13.036Z,11.220093
2022-09-25T05:00:38.483Z,11.210022
2022-09-25T05:04:08.464Z,11.220093
2022-09-25T05:07:29.353Z,11.250305
2022-09-25T05:10:54.792Z,11.240234
2022-09-25T05:14:20.214Z,11.240234
2022-09-25T05:17:45.693Z,11.18988
2022-09-25T05:21:11.218Z,11.18988
2022-09-25T05:24:36.664Z,11.18988
2022-09-25T05:28:02.213Z,11.18988
2022-09-25T05:31:27.624Z,11.18988
2022-09-25T05:34:53.115Z,11.240234
2022-09-25T05:38:18.640Z,11.270447
2022-09-25T05:41:43.953Z,11.320801
2022-09-25T05:45:09.492Z,11.290588
2022-09-25T05:48:35.861Z,11.280518
2022-09-25T05:52:01.240Z,11.351013
2022-09-25T05:55:26.668Z,11.351013
2022-09-25T05:58:52.162Z,11.361084
2022-09-25T06:02:17.586Z,11.43158
2022-09-25T06:05:42.979Z,11.461792
2022-09-25T06:09:08.398Z,11.572571
2022-09-25T06:12:33.831Z,11.612854
2022-09-25T06:15:59.295Z,11.643066
2022-09-25T06:19:24.660Z,11.653137
2022-09-25T06:22:50.063Z,11.723633
2022-09-25T06:26:15.493Z,11.753845
2022-09-25T06:29:40.910Z,11.794128
2022-09-25T06:33:06.312Z,11.864624
2022-09-25T06:36:31.732Z,11.985474
2022-09-25T06:39:57.141Z,12.035828
2022-09-25T06:43:22.569Z,12.126465
2022-09-25T06:46:48.043Z,12.18689
2022-09-25T06:50:13.394Z,12.237244
2022-09-25T06:53:38.852Z,12.31781
2022-09-25T06:57:04.213Z,12.378235
2022-09-25T07:00:29.634Z,12.458801
2022-09-25T07:03:55.077Z,12.519226
2022-09-25T07:07:20.455Z,12.56958
2022-09-25T07:10:45.913Z,12.619934
2022-09-25T07:14:11.285Z,12.710571
2022-09-25T07:17:36.752Z,12.82135
2022-09-25T07:21:02.280Z,12.861633
2022-09-25T07:24:27.596Z,12.891846
2022-09-25T07:27:53.011Z,12.962341
2022-09-25T07:31:18.489Z,12.972412
2022-09-25T07:34:43.859Z,13.002625
2022-09-25T07:38:09.377Z,13.032837
2022-09-25T07:41:34.628Z,13.052979
2022-09-25T07:45:00.089Z,13.032837
2022-09-25T07:48:25.504Z,13.07312
2022-09-25T07:51:50.893Z,13.123474
2022-09-25T07:55:16.360Z,13.173828
2022-09-25T07:58:41.771Z,13.153687
2022-09-25T08:02:07.281Z,13.173828
2022-09-25T08:05:32.575Z,13.254395
2022-09-25T08:08:58.039Z,13.284607
2022-09-25T08:12:23.465Z,13.355103
2022-09-25T08:15:48.953Z,13.405457
2022-09-25T08:19:14.293Z,13.435669
2022-09-25T08:22:39.709Z,13.435669
2022-09-25T08:26:05.105Z,13.44574
2022-09-25T08:29:30.550Z,13.506165
2022-09-25T08:32:55.941Z,13.546448
2022-09-25T08:36:21.345Z,13.566589
2022-09-25T08:39:46.782Z,13.566589
2022-09-25T08:43:12.184Z,13.627014
2022-09-25T08:46:37.738Z,13.637085
2022-09-25T08:50:03.019Z,13.687439
2022-09-25T08:53:28.455Z,13.687439
2022-09-25T08:56:53.856Z,13.637085
2022-09-25T09:00:19.344Z,13.596802
2022-09-25T09:03:44.706Z,13.667297
2022-09-25T09:07:26.174Z,13.747864
2022-09-25T09:10:35.513Z,13.768005
2022-09-25T09:14:00.917Z,13.818359
2022-09-25T09:17:26.355Z,13.808289
2022-09-25T09:20:51.790Z,13.788147
2022-09-25T09:24:17.205Z,13.848572
2022-09-25T09:27:42.616Z,13.848572
2022-09-25T09:31:08.042Z,13.818359
2022-09-25T09:34:53.413Z,13.808289
2022-09-25T09:37:58.811Z,13.768005
2022-09-25T09:41:24.250Z,13.788147
2022-09-25T09:44:49.641Z,13.818359
2022-09-25T09:48:15.076Z,13.848572
2022-09-25T09:51:40.502Z,13.818359
2022-09-25T09:55:05.909Z,13.878784
2022-09-25T09:58:31.284Z,13.959351
2022-09-25T10:01:56.855Z,14.019775
2022-09-25T10:05:22.111Z,13.989563
2022-09-25T10:08:47.530Z,14.090271
2022-09-25T10:12:13.083Z,14.100342
2022-09-25T10:15:38.337Z,14.150696
2022-09-25T10:19:03.705Z,14.20105
2022-09-25T10:22:29.153Z,14.291687
2022-09-25T10:25:56.137Z,14.372253
2022-09-25T10:29:20.058Z,14.513245
2022-09-25T10:32:45.386Z,14.573669
2022-09-25T10:36:10.838Z,14.654236
2022-09-25T10:39:44.491Z,14.825439
2022-09-25T10:43:02.257Z,15.067139
2022-09-25T10:46:27.829Z,15.228271
2022-09-25T10:49:53.158Z,15.318909
2022-09-25T10:53:18.589Z,15.288696
2022-09-25T10:56:44.086Z,15.268555
2022-09-25T11:00:09.538Z,15.278625
2022-09-25T11:03:35.985Z,15.198059
2022-09-25T11:07:01.417Z,15.167847
2022-09-25T11:10:26.926Z,15.08728
2022-09-25T11:13:52.310Z,15.067139
2022-09-25T11:17:17.771Z,15.067139
2022-09-25T11:20:43.257Z,15.097351
2022-09-25T11:24:08.682Z,15.097351
2022-09-25T11:27:34.106Z,15.137634
2022-09-25T11:30:59.551Z,15.268555
2022-09-25T11:34:25.005Z,15.349121
2022-09-25T11:37:50.461Z,15.379333
2022-09-25T11:41:15.876Z,15.308838
2022-09-25T11:44:41.288Z,15.278625
2022-09-25T11:48:06.748Z,15.248413
2022-09-25T11:51:32.180Z,15.288696
2022-09-25T11:54:57.666Z,15.20813
2022-09-25T11:58:23.223Z,15.278625
2022-09-25T12:01:48.646Z,15.268555
2022-09-25T12:05:14.127Z,15.248413
2022-09-25T12:08:39.542Z,15.228271
2022-09-25T12:12:05.030Z,15.228271
2022-09-25T12:15:30.554Z,15.187988
2022-09-25T12:18:55.991Z,15.107422
2022-09-25T12:22:21.531Z,15.057068
2022-09-25T12:25:46.976Z,15.057068
2022-09-25T12:29:12.551Z,15.097351
2022-09-25T12:32:37.895Z,15.067139
2022-09-25T12:36:03.406Z,15.057068
2022-09-25T12:39:28.883Z,15.016785
2022-09-25T12:42:54.352Z,14.936218
2022-09-25T12:46:19.982Z,14.795227
2022-09-25T12:49:45.279Z,14.553528
2022-09-25T12:53:10.714Z,14.362183
2022-09-25T12:56:36.181Z,14.241333
2022-09-25T13:00:01.640Z,14.100342
2022-09-25T13:03:27.241Z,14.019775
2022-09-25T13:06:52.618Z,14.060059
2022-09-25T13:10:18.046Z,13.999634
2022-09-25T13:13:43.505Z,13.838501
2022-09-25T13:17:08.963Z,13.667297
2022-09-25T13:20:34.490Z,13.566589
2022-09-25T13:23:59.833Z,13.455811
2022-09-25T13:27:25.259Z,13.405457
2022-09-25T13:30:50.777Z,13.334961
2022-09-25T13:34:16.145Z,13.304749
2022-09-25T13:37:41.673Z,13.254395
2022-09-25T13:41:06.972Z,13.153687
2022-09-25T13:44:32.418Z,13.083191
2022-09-25T13:47:59.763Z,12.962341
2022-09-25T13:51:23.313Z,12.922058
2022-09-25T13:54:48.763Z,12.891846
2022-09-25T13:58:14.215Z,12.831421
2022-09-25T14:01:39.618Z,12.791138
2022-09-25T14:05:05.048Z,12.770996
2022-09-25T14:08:30.478Z,12.740784
2022-09-25T14:11:55.905Z,12.750854
2022-09-25T14:15:21.291Z,12.851562
2022-09-25T14:18:49.191Z,12.851562
2022-09-25T14:22:12.184Z,12.82135
2022-09-25T14:25:37.639Z,12.861633
2022-09-25T14:29:03.135Z,12.901917
2022-09-25T15:05:57.436Z,13.294678
2022-09-25T15:09:22.839Z,13.294678
2022-09-25T15:12:48.164Z,13.304749
2022-09-25T15:16:13.540Z,13.32489
2022-09-25T15:19:38.836Z,13.284607
2022-09-25T15:23:04.229Z,13.294678
2022-09-25T15:26:29.576Z,13.284607
2022-09-25T15:29:54.910Z,13.304749
2022-09-25T15:33:20.261Z,13.284607
2022-09-25T15:36:45.611Z,13.264465
2022-09-25T15:40:11.008Z,13.284607
2022-09-25T15:43:36.260Z,13.294678
2022-09-25T15:47:01.625Z,13.284607
2022-09-25T15:50:26.959Z,13.254395
2022-09-25T15:53:52.284Z,13.254395
2022-09-25T15:57:17.660Z,13.264465
2022-09-25T16:00:42.908Z,13.264465
2022-09-25T16:04:08.315Z,13.234253
2022-09-25T16:07:33.616Z,13.254395
2022-09-25T16:10:58.927Z,13.234253
2022-09-25T16:14:24.288Z,13.19397
2022-09-25T16:17:49.632Z,13.204041
2022-09-25T16:21:14.949Z,13.153687
2022-09-25T16:24:40.312Z,13.143616
2022-09-25T16:28:05.648Z,13.123474
2022-09-25T16:31:31.090Z,13.103333
2022-09-25T16:34:56.324Z,13.153687
2022-09-25T16:38:21.665Z,13.173828
2022-09-25T16:41:47.008Z,13.173828
2022-09-25T16:45:12.328Z,13.173828
2022-09-25T16:48:37.677Z,13.103333
2022-09-25T16:52:03.008Z,13.042908
2022-09-25T16:55:28.352Z,13.07312
2022-09-25T16:58:53.763Z,13.052979
2022-09-25T17:02:19.278Z,13.083191
2022-09-25T17:05:44.629Z,13.052979
2022-09-25T17:09:10.127Z,13.042908
2022-09-25T17:12:36.988Z,13.032837
2022-09-25T17:16:02.413Z,13.032837
2022-09-25T17:19:27.923Z,12.962341
2022-09-25T17:22:55.228Z,12.952271
2022-09-25T17:26:20.670Z,12.891846
2022-09-25T17:29:46.128Z,12.82135
2022-09-25T17:33:13.424Z,12.750854
2022-09-25T17:36:41.824Z,12.740784
2022-09-25T17:40:07.295Z,12.710571
2022-09-25T17:43:32.713Z,12.770996
2022-09-25T17:46:58.240Z,12.740784
2022-09-25T17:50:23.876Z,12.720642
2022-09-25T17:53:50.200Z,12.670288
2022-09-25T17:57:15.652Z,12.650146
2022-09-25T18:00:41.041Z,12.640076
2022-09-25T18:04:06.549Z,12.56958
2022-09-25T18:07:33.754Z,12.529297
2022-09-25T18:10:57.388Z,12.468872
2022-09-25T18:14:22.972Z,12.468872
2022-09-25T18:17:48.392Z,12.418518
2022-09-25T18:21:13.887Z,12.307739
2022-09-25T18:24:39.488Z,12.31781
2022-09-25T18:28:05.008Z,12.267456
2022-09-25T18:31:30.587Z,12.207031
2022-09-25T18:34:55.897Z,12.045898
2022-09-25T18:38:21.461Z,11.914978
2022-09-25T18:41:46.929Z,11.864624
2022-09-25T18:45:12.366Z,11.794128
2022-09-25T18:48:37.836Z,11.804199
2022-09-25T18:52:03.280Z,11.753845
2022-09-25T18:55:28.728Z,11.804199
2022-09-25T18:58:54.110Z,11.824341
2022-09-25T19:02:19.718Z,11.794128
2022-09-25T19:05:45.036Z,11.824341
2022-09-25T19:09:15.558Z,11.854553
2022-09-25T19:12:35.965Z,11.854553
2022-09-25T19:16:01.503Z,11.834412
2022-09-25T19:19:26.896Z,11.824341
2022-09-25T19:22:52.359Z,11.794128
2022-09-25T19:26:17.764Z,11.784058
2022-09-25T19:29:43.240Z,11.69342
2022-09-25T19:33:08.665Z,11.69342
2022-09-25T19:36:34.133Z,11.69342
2022-09-25T19:39:59.590Z,11.723633
2022-09-25T19:43:24.975Z,11.69342
2022-09-25T19:46:50.481Z,11.673279
2022-09-25T19:50:16.109Z,11.653137
2022-09-25T19:53:41.570Z,11.542358
2022-09-25T19:57:07.028Z,11.522217
2022-09-25T20:00:32.431Z,11.512146
2022-09-25T20:03:57.851Z,11.522217
2022-09-25T20:07:23.323Z,11.542358
2022-09-25T20:10:48.751Z,11.522217
2022-09-25T20:14:14.276Z,11.471863
2022-09-25T20:17:39.591Z,11.43158
2022-09-25T20:21:05.045Z,11.361084
2022-09-25T20:24:30.450Z,11.391296
2022-09-25T20:27:55.837Z,11.391296
2022-09-25T20:31:21.505Z,11.320801
2022-09-25T20:34:46.721Z,11.351013
2022-09-25T20:38:12.121Z,11.351013
2022-09-25T20:41:37.552Z,11.330872
2022-09-25T20:45:02.955Z,11.351013
2022-09-25T20:48:28.454Z,11.361084
2022-09-25T20:51:53.904Z,11.391296
2022-09-25T20:55:19.302Z,11.421509
2022-09-25T20:58:46.546Z,11.351013
2022-09-25T21:02:10.267Z,11.361084
2022-09-25T21:05:35.594Z,11.351013
2022-09-25T21:09:01.015Z,11.330872
2022-09-25T21:12:26.404Z,11.280518
2022-09-25T21:15:51.831Z,11.371155
2022-09-25T21:19:17.258Z,11.391296
2022-09-25T21:22:42.669Z,11.421509
2022-09-25T21:26:08.031Z,11.330872
2022-09-25T21:29:33.464Z,11.290588
2022-09-25T21:32:58.854Z,11.320801
2022-09-25T21:36:24.390Z,11.351013
2022-09-25T21:39:49.816Z,11.371155
2022-09-25T21:43:15.317Z,11.361084
2022-09-25T21:46:40.901Z,11.401367
2022-09-25T21:50:06.316Z,11.401367
2022-09-25T21:53:31.775Z,11.361084
2022-09-25T21:56:57.200Z,11.351013
2022-09-25T22:00:22.585Z,11.330872
2022-09-25T22:03:48.010Z,11.270447
2022-09-25T22:07:13.415Z,11.250305
2022-09-25T22:10:38.840Z,11.330872
2022-09-25T22:14:04.285Z,11.371155
2022-09-25T22:17:29.655Z,11.351013
2022-09-25T22:20:55.108Z,11.330872
2022-09-25T22:24:20.524Z,11.330872
2022-09-25T22:27:45.915Z,11.280518
2022-09-25T22:31:11.613Z,11.290588
2022-09-25T22:34:36.961Z,11.290588
2022-09-25T22:38:02.419Z,11.320801
2022-09-25T22:41:27.954Z,11.351013
2022-09-25T22:44:53.338Z,11.401367
2022-09-25T22:48:18.849Z,11.391296
2022-09-25T22:51:44.254Z,11.361084
2022-09-25T22:55:09.631Z,11.401367
2022-09-25T22:58:35.059Z,11.371155
2022-09-25T23:02:00.485Z,11.371155
2022-09-25T23:05:26.012Z,11.391296
2022-09-25T23:08:51.336Z,11.391296
2022-09-25T23:12:16.829Z,11.44165
2022-09-25T23:15:42.236Z,11.461792
2022-09-25T23:19:07.654Z,11.461792
2022-09-25T23:22:33.090Z,11.492004
2022-09-25T23:25:58.411Z,11.471863
2022-09-25T23:29:23.807Z,11.44165
2022-09-25T23:32:49.251Z,11.401367
2022-09-25T23:36:14.636Z,11.401367
2022-09-25T23:39:40.208Z,11.421509
2022-09-25T23:43:05.513Z,11.391296
2022-09-25T23:46:30.933Z,11.371155
2022-09-25T23:49:58.592Z,11.391296
2022-09-25T23:53:21.724Z,11.371155
2022-09-25T23:56:47.167Z,11.371155
